« 定点 富山空港 2018/9/14 fri | トップページ | ’18航空祭inKOMATSU【B.I.編】 小松飛行場 2018/9/17 mon »

2018/09/16

ブルーインパルス前日予行 小松飛行場 2018/9/16 sun

朝から雨のぐづついた一日。金沢駐屯地からの転戦で、末広緑地へ。

RJNK 160400Z 25016KT 6000 -SHRA FEW008 BKN030 BKN050 24/22 Q1012

20180916_rjnk_00ja8999

JTA036 ROAH-RJNK JA8999 B737-446

20180916_rjnk_01bi

13時半 今にも雨が降りそうな空模様ですが、一応フィールドVMCなので、上がってくれました。

20180916_rjnk_02bi

まずは、5番機による天候調査から

20180916_rjnk_03bi

なんとか期待できそうです。

20180916_rjnk_04bi

RW上では、ランナップが始まっています。

20180916_rjnk_05bi

最後にチェイスするように・・・

20180916_rjnk_06bi

テイクオフ 洋上に出てジョインアップ

20180916_rjnk_07bi

左周りのレーストラックで5区分

20180916_rjnk_08bi

デルタ・ローパス

20180916_rjnk_09bi

綺麗な隊形です

20180916_rjnk_10bi

飛行場上空は、開けていますが、周辺は雲が垂れてきてます。

RJNK 160500Z 22009KT 9999 FEW006 SCT010 BKN015 25/22 Q1012

20180916_rjnk_11ja308j

JAL187 RJTT-RJNK JA308J B737-846

20180916_rjnk_12ja14rj

IBX86 RJFF-RJNK JA14RJ CRJ-702ER

20180916_rjnk_13bi

北から リーダーズ・ベネフィット・ローパス

20180916_rjnk_14bi

定期便の間隙をぬってのフライトです。

20180916_rjnk_15bi

暗いねぇぇ。天候は益々悪化。これでミッションコンプリートとなりました。

20180916_rjnk_16bi

ダイレクト・ベース

20180916_rjnk_17bi265690

#1 26-5690 T-4 11SQ

20180916_rjnk_18bi065787

#2 06-5787 T-4 11SQ

20180916_rjnk_19bi465730

#3 46-5730 T-4 11SQ

20180916_rjnk_20bi465731

#4 46-5731 T-4 11SQ

20180916_rjnk_21bi065790

#5 06-5790 T-4 11SQ

20180916_rjnk_22bi165666

#6 16-5666 T-4 11SQ

明日また、お逢いしましょう。

*** whitewing681さんの動画 ***

*****

|

« 定点 富山空港 2018/9/14 fri | トップページ | ’18航空祭inKOMATSU【B.I.編】 小松飛行場 2018/9/17 mon »

小松飛行場」カテゴリの記事

BI」カテゴリの記事

コメント

コメントを書く



(ウェブ上には掲載しません)


コメントは記事投稿者が公開するまで表示されません。



トラックバック


この記事へのトラックバック一覧です: ブルーインパルス前日予行 小松飛行場 2018/9/16 sun:

« 定点 富山空港 2018/9/14 fri | トップページ | ’18航空祭inKOMATSU【B.I.編】 小松飛行場 2018/9/17 mon »